sensor_id;sensor_type;location;lat;lon;timestamp;P1;durP1;ratioP1;P2;durP2;ratioP2
75506;SDS011;64086;43.220;27.878;2023-06-22T21:40:44;21.98;;;19.75;;
75506;SDS011;64086;43.220;27.878;2023-06-22T21:43:09;22.75;;;20.85;;
75506;SDS011;64086;43.220;27.878;2023-06-22T21:45:37;24.58;;;22.27;;
75506;SDS011;64086;43.220;27.878;2023-06-22T21:48:02;23.35;;;21.35;;
75506;SDS011;64086;43.220;27.878;2023-06-22T21:50:28;23.33;;;21.23;;
75506;SDS011;64086;43.220;27.878;2023-06-22T21:52:53;22.50;;;20.50;;
75506;SDS011;64086;43.220;27.878;2023-06-22T21:55:19;23.85;;;21.63;;
75506;SDS011;64086;43.220;27.878;2023-06-22T21:57:45;23.63;;;21.42;;
75506;SDS011;64086;43.220;27.878;2023-06-22T22:00:10;23.95;;;21.63;;
75506;SDS011;64086;43.220;27.878;2023-06-22T22:02:37;23.17;;;20.90;;
75506;SDS011;64086;43.220;27.878;2023-06-22T22:05:02;23.70;;;21.50;;
75506;SDS011;64086;43.220;27.878;2023-06-22T22:07:28;23.65;;;21.17;;
75506;SDS011;64086;43.220;27.878;2023-06-22T22:09:55;22.88;;;20.85;;
75506;SDS011;64086;43.220;27.878;2023-06-22T22:12:21;23.70;;;21.60;;
75506;SDS011;64086;43.220;27.878;2023-06-22T22:14:46;23.58;;;21.38;;
75506;SDS011;64086;43.220;27.878;2023-06-22T22:17:12;23.90;;;21.75;;
75506;SDS011;64086;43.220;27.878;2023-06-22T22:19:38;23.50;;;21.10;;
75506;SDS011;64086;43.220;27.878;2023-06-22T22:22:04;23.42;;;21.45;;
75506;SDS011;64086;43.220;27.878;2023-06-22T22:27:54;22.58;;;20.40;;
75506;SDS011;64086;43.220;27.878;2023-06-22T22:30:19;23.08;;;20.77;;
75506;SDS011;64086;43.220;27.878;2023-06-22T22:32:45;21.42;;;19.15;;
75506;SDS011;64086;43.220;27.878;2023-06-22T22:35:11;20.75;;;18.63;;
75506;SDS011;64086;43.220;27.878;2023-06-22T22:37:38;22.13;;;19.83;;
75506;SDS011;64086;43.220;27.878;2023-06-22T22:40:04;21.30;;;19.30;;
75506;SDS011;64086;43.220;27.878;2023-06-22T22:42:33;20.88;;;18.88;;
75506;SDS011;64086;43.220;27.878;2023-06-22T22:44:59;22.00;;;19.73;;
75506;SDS011;64086;43.220;27.878;2023-06-22T22:47:28;22.45;;;19.92;;
75506;SDS011;64086;43.220;27.878;2023-06-22T22:49:53;22.50;;;20.35;;
75506;SDS011;64086;43.220;27.878;2023-06-22T22:52:19;22.15;;;20.05;;
75506;SDS011;64086;43.220;27.878;2023-06-22T22:54:44;23.60;;;21.08;;
75506;SDS011;64086;43.220;27.878;2023-06-22T22:57:10;22.48;;;20.20;;
75506;SDS011;64086;43.220;27.878;2023-06-22T22:59:35;22.80;;;20.40;;
75506;SDS011;64086;43.220;27.878;2023-06-22T23:02:01;22.15;;;20.13;;
75506;SDS011;64086;43.220;27.878;2023-06-22T23:04:26;23.65;;;21.33;;
75506;SDS011;64086;43.220;27.878;2023-06-22T23:06:52;23.80;;;21.33;;
75506;SDS011;64086;43.220;27.878;2023-06-22T23:09:19;22.90;;;20.60;;
75506;SDS011;64086;43.220;27.878;2023-06-22T23:11:45;23.33;;;21.13;;
75506;SDS011;64086;43.220;27.878;2023-06-22T23:14:11;24.48;;;22.33;;
75506;SDS011;64086;43.220;27.878;2023-06-22T23:16:37;26.88;;;24.08;;
75506;SDS011;64086;43.220;27.878;2023-06-22T23:19:04;26.42;;;24.00;;
75506;SDS011;64086;43.220;27.878;2023-06-22T23:21:29;25.40;;;23.05;;
75506;SDS011;64086;43.220;27.878;2023-06-22T23:23:55;23.90;;;21.48;;
75506;SDS011;64086;43.220;27.878;2023-06-22T23:26:20;24.23;;;22.05;;
75506;SDS011;64086;43.220;27.878;2023-06-22T23:28:46;25.38;;;22.85;;
75506;SDS011;64086;43.220;27.878;2023-06-22T23:31:11;24.33;;;22.00;;
75506;SDS011;64086;43.220;27.878;2023-06-22T23:33:37;25.77;;;23.20;;
75506;SDS011;64086;43.220;27.878;2023-06-22T23:36:05;23.90;;;21.52;;
75506;SDS011;64086;43.220;27.878;2023-06-22T23:38:31;23.83;;;21.58;;
75506;SDS011;64086;43.220;27.878;2023-06-22T23:40:57;24.80;;;22.30;;
75506;SDS011;64086;43.220;27.878;2023-06-22T23:43:22;24.10;;;21.77;;
75506;SDS011;64086;43.220;27.878;2023-06-22T23:45:50;25.33;;;22.73;;
75506;SDS011;64086;43.220;27.878;2023-06-22T23:48:15;27.15;;;24.52;;
75506;SDS011;64086;43.220;27.878;2023-06-22T23:50:41;25.67;;;23.27;;
75506;SDS011;64086;43.220;27.878;2023-06-22T23:53:06;23.98;;;21.67;;
75506;SDS011;64086;43.220;27.878;2023-06-22T23:55:34;25.02;;;22.35;;
75506;SDS011;64086;43.220;27.878;2023-06-22T23:58:00;24.17;;;21.98;;
